Rio Rancho, New Mexico
Current Conditions -  °F | °C
As of 3:48 PM on Friday 19 Dec 2014 (Local Time) from KAEG Reporting Station
Few Clouds Few Clouds  
Wind Chill: 30°   Ceiling: Unl
Heat Index: 39°   Visibility: 10mi
Dew Point: 25°   Wind: 16mph
Humidity: 56%   Direction: 320°NW
Pressure: 30.17"   Gusts: NA
Location:  35.24°N, 106.66°W
Report Text: KAEG 192248Z 32014KT 10SM FEW050 04/M04 A3017
Loading
Personal Weather Stations






























Interactive Weather Map New forecast layout! Learn more

10-Day Weather Forecast

Advertisements
Track Severe Weather on mobile